Time;durP1;ratioP1;P1;durP2;ratioP2;P2;SDS_P1;SDS_P2;PMS_P1;PMS_P2;Temp;Humidity;BMP_temperature;BMP_pressure;BME280_temperature;BME280_humidity;BME280_pressure;Samples;Min_cycle;Max_cycle;Signal;HPM_P1;HPM_P2
2022/09/28 00:01:45;;;;;;;30.63;4.38;;;;;;;9.47;100.00;96366.59;4946132;28;20047;-57
2022/09/28 00:04:11;;;;;;;37.20;4.90;;;;;;;9.25;100.00;96370.53;4961223;28;20070;-56
2022/09/28 00:06:37;;;;;;;31.52;4.25;;;;;;;9.71;100.00;96376.41;4946581;28;20544;-59
2022/09/28 00:09:03;;;;;;;40.03;5.45;;;;;;;9.03;100.00;96363.19;4946342;28;20586;-59
2022/09/28 00:11:29;;;;;;;30.60;4.57;;;;;;;9.12;100.00;96350.59;4946678;28;20082;-56
2022/09/28 00:13:58;;;;;;;35.58;4.65;;;;;;;9.37;100.00;96355.09;4948236;28;20369;-56
2022/09/28 00:16:30;;;;;;;31.50;4.50;;;;;;;9.05;100.00;96350.94;4949331;28;20406;-55
2022/09/28 00:18:56;;;;;;;33.42;4.55;;;;;;;9.63;100.00;96348.22;4953809;28;20026;-59
2022/09/28 00:21:27;;;;;;;33.88;4.90;;;;;;;9.20;100.00;96330.13;4948865;28;20036;-57
2022/09/28 00:24:13;;;;;;;36.47;4.80;;;;;;;9.59;100.00;96328.53;4950793;28;20025;-56
2022/09/28 00:26:48;;;;;;;33.65;4.90;;;;;;;9.45;100.00;96322.44;4950405;28;20131;-56
2022/09/28 00:29:27;;;;;;;35.67;4.75;;;;;;;9.57;100.00;96320.00;4951491;28;20023;-57
2022/09/28 00:32:01;;;;;;;26.60;4.07;;;;;;;9.29;100.00;96313.94;4949706;28;20038;-56
2022/09/28 00:34:30;;;;;;;45.30;5.30;;;;;;;9.54;100.00;96315.84;4949051;28;20039;-55
2022/09/28 00:36:55;;;;;;;28.33;4.30;;;;;;;9.45;100.00;96301.63;4963031;28;20170;-54
2022/09/28 00:39:20;;;;;;;32.90;4.97;;;;;;;9.72;100.00;96300.78;4950106;28;20129;-57
2022/09/28 00:41:46;;;;;;;36.45;4.80;;;;;;;8.79;100.00;96307.50;4951589;28;20089;-56
2022/09/28 00:44:52;;;;;;;39.90;4.90;;;;;;;9.34;100.00;96296.28;4950927;28;20099;-55
2022/09/28 00:47:22;;;;;;;44.72;5.30;;;;;;;9.21;100.00;96292.78;4950370;28;20084;-57
2022/09/28 00:50:02;;;;;;;35.45;4.95;;;;;;;9.44;100.00;96289.53;4949986;28;20031;-56
2022/09/28 00:52:44;;;;;;;38.45;5.03;;;;;;;8.94;100.00;96283.16;4951306;28;20057;-54
2022/09/28 00:55:16;;;;;;;38.83;4.88;;;;;;;8.99;100.00;96278.50;4949034;28;20034;-55
2022/09/28 00:57:51;;;;;;;45.22;5.70;;;;;;;8.75;100.00;96280.00;4949994;28;20575;-54
2022/09/28 01:00:17;;;;;;;36.92;4.68;;;;;;;8.86;100.00;96268.03;4949776;28;20610;-57
2022/09/28 01:02:44;;;;;;;34.80;4.60;;;;;;;8.66;100.00;96281.44;4949700;28;20526;-55
2022/09/28 01:05:10;;;;;;;37.33;4.82;;;;;;;9.19;100.00;96276.41;4950832;28;20041;-56
2022/09/28 01:07:36;;;;;;;31.75;4.32;;;;;;;9.34;100.00;96262.44;4949473;28;20031;-56
2022/09/28 01:10:03;;;;;;;32.20;4.35;;;;;;;9.25;100.00;96263.03;4948993;28;20027;-55
2022/09/28 01:12:28;;;;;;;31.85;4.32;;;;;;;9.44;100.00;96258.31;4949608;28;20031;-55
2022/09/28 01:14:55;;;;;;;38.65;4.65;;;;;;;9.32;100.00;96247.84;4950734;28;20027;-54
2022/09/28 01:17:29;;;;;;;28.23;3.70;;;;;;;9.27;100.00;96255.97;4946809;28;20042;-54
2022/09/28 01:20:18;;;;;;;36.63;4.65;;;;;;;9.41;100.00;96248.13;4949253;28;20042;-54
2022/09/28 01:22:49;;;;;;;38.90;4.55;;;;;;;9.18;100.00;96235.75;4949246;28;20047;-55
2022/09/28 01:25:36;;;;;;;34.03;4.40;;;;;;;9.33;100.00;96224.34;4948413;28;20018;-55
2022/09/28 01:28:10;;;;;;;40.38;4.78;;;;;;;8.98;100.00;96219.63;4949843;28;20030;-54
2022/09/28 01:30:57;;;;;;;27.42;3.85;;;;;;;8.89;100.00;96220.22;4948196;28;20066;-55
2022/09/28 01:33:27;;;;;;;29.35;4.00;;;;;;;9.17;100.00;96213.25;4949895;28;20027;-57
2022/09/28 01:36:00;;;;;;;31.80;3.80;;;;;;;9.16;100.00;96207.22;4948827;28;20054;-54
2022/09/28 01:38:33;;;;;;;29.83;3.92;;;;;;;8.76;100.00;96188.13;4949612;28;20034;-56
2022/09/28 01:40:59;;;;;;;;;;;;;;;9.00;100.00;96190.94;4948259;28;20043;-54
2022/09/28 01:43:33;;;;;;;35.03;4.20;;;;;;;8.66;100.00;96188.69;4950308;28;19910;-57
2022/09/28 01:46:10;;;;;;;26.83;3.45;;;;;;;9.04;100.00;96177.66;4946900;28;20054;-54
2022/09/28 01:48:48;;;;;;;25.40;3.25;;;;;;;8.90;100.00;96172.50;4950347;28;20817;-54
2022/09/28 01:51:21;;;;;;;33.67;4.00;;;;;;;8.74;100.00;96171.78;4948175;28;20098;-54
2022/09/28 01:53:56;;;;;;;32.90;4.07;;;;;;;9.24;100.00;96168.56;4949518;28;20042;-57
2022/09/28 01:56:33;;;;;;;37.97;4.30;;;;;;;8.97;100.00;96165.13;4946826;28;20043;-55
2022/09/28 01:59:07;;;;;;;26.65;3.58;;;;;;;9.16;100.00;96147.41;4949892;28;20035;-55
2022/09/28 02:01:39;;;;;;;37.97;4.35;;;;;;;8.75;100.00;96150.03;4947719;28;20031;-57
2022/09/28 02:04:15;;;;;;;35.85;4.38;;;;;;;8.90;100.00;96149.09;4951972;28;20554;-54
2022/09/28 02:06:54;;;;;;;34.95;4.57;;;;;;;9.24;100.00;96154.72;4948443;28;20035;-56
2022/09/28 02:09:34;;;;;;;49.97;5.15;;;;;;;8.81;100.00;96149.69;4949807;28;20027;-55
2022/09/28 02:12:09;;;;;;;35.03;4.43;;;;;;;8.93;100.00;96141.06;4946476;28;20061;-55
2022/09/28 02:14:38;;;;;;;37.70;5.00;;;;;;;8.76;100.00;96136.13;4949510;28;20027;-56
2022/09/28 02:17:04;;;;;;;25.50;3.88;;;;;;;8.93;100.00;96137.66;4947257;28;20039;-57
2022/09/28 02:19:31;;;;;;;45.15;4.65;;;;;;;8.92;100.00;96133.41;4947474;28;20662;-55
2022/09/28 02:22:15;;;;;;;31.67;4.30;;;;;;;8.99;100.00;96130.31;4948054;28;20404;-56
2022/09/28 02:24:52;;;;;;;28.35;3.95;;;;;;;9.01;100.00;96130.22;4947714;28;20628;-56
2022/09/28 02:27:45;;;;;;;46.03;4.82;;;;;;;9.04;100.00;96133.44;4946644;28;20043;-58
2022/09/28 02:30:11;;;;;;;38.00;5.03;;;;;;;9.05;100.00;96132.50;4947765;28;20097;-59
2022/09/28 02:32:39;;;;;;;31.77;4.28;;;;;;;8.85;100.00;96131.16;4949030;28;20046;-56
2022/09/28 02:35:13;;;;;;;41.90;5.25;;;;;;;8.79;100.00;96115.16;4948275;28;20035;-56
2022/09/28 02:37:39;;;;;;;36.70;4.38;;;;;;;8.89;100.00;96116.22;4939632;29;20075;-58
2022/09/28 02:40:28;;;;;;;41.13;5.10;;;;;;;8.96;100.00;96106.25;4939704;28;20146;-56
2022/09/28 02:43:02;;;;;;;29.08;3.95;;;;;;;8.94;100.00;96088.16;4948883;28;20022;-55
2022/09/28 02:45:55;;;;;;;29.08;4.05;;;;;;;9.12;100.00;96090.50;4944921;28;20468;-55
2022/09/28 02:48:26;;;;;;;34.72;4.55;;;;;;;9.06;100.00;96092.56;4948681;28;20031;-56
2022/09/28 02:50:57;;;;;;;41.78;4.47;;;;;;;8.98;100.00;96094.00;4947511;28;20110;-57
2022/09/28 02:53:43;;;;;;;33.67;4.20;;;;;;;9.01;100.00;96084.22;4947540;28;20160;-55
2022/09/28 02:56:41;;;;;;;35.15;4.40;;;;;;;9.13;100.00;96081.75;4948383;28;20035;-54
2022/09/28 02:59:47;;;;;;;37.00;4.75;;;;;;;9.01;100.00;96084.22;4948954;28;20673;-55
2022/09/28 03:02:51;;;;;;;41.30;4.82;;;;;;;8.95;100.00;96097.63;4949375;28;20039;-55
2022/09/28 03:05:51;;;;;;;39.05;4.47;;;;;;;8.88;100.00;96079.00;4946583;28;20105;-56
2022/09/28 03:08:28;;;;;;;41.33;4.72;;;;;;;8.77;100.00;96075.44;4946298;28;20761;-55
2022/09/28 03:11:06;;;;;;;27.33;4.03;;;;;;;8.93;100.00;96076.06;4946854;28;20039;-55
2022/09/28 03:13:33;;;;;;;41.67;5.30;;;;;;;9.21;100.00;96067.31;4948348;28;20081;-57
2022/09/28 03:16:10;;;;;;;31.13;4.22;;;;;;;9.23;100.00;96077.63;4947953;28;20133;-57
2022/09/28 03:18:36;;;;;;;41.08;4.95;;;;;;;8.95;100.00;96068.19;4947033;28;20070;-56
2022/09/28 03:21:03;;;;;;;32.38;4.43;;;;;;;9.31;100.00;96067.53;4947221;28;20138;-56
2022/09/28 03:23:28;;;;;;;35.53;4.38;;;;;;;9.27;100.00;96059.09;4947574;28;20042;-55
2022/09/28 03:25:53;;;;;;;29.88;3.88;;;;;;;9.33;100.00;96037.03;4945916;28;20043;-55
2022/09/28 03:28:20;;;;;;;33.25;4.47;;;;;;;9.83;100.00;96045.78;4946873;28;20492;-56
2022/09/28 03:30:45;;;;;;;38.15;4.82;;;;;;;9.31;100.00;96041.50;4948370;28;20047;-56
2022/09/28 03:33:10;;;;;;;31.75;4.28;;;;;;;9.49;100.00;96030.81;4948545;28;20038;-58
2022/09/28 03:35:36;;;;;;;40.28;4.90;;;;;;;9.64;100.00;96025.38;4948726;28;20055;-56
2022/09/28 03:38:01;;;;;;;33.47;4.30;;;;;;;10.02;100.00;96018.44;4949095;28;20042;-57
2022/09/28 03:40:26;;;;;;;32.58;4.35;;;;;;;9.92;100.00;96015.63;4945325;28;20098;-55
2022/09/28 03:42:52;;;;;;;46.65;5.22;;;;;;;10.08;100.00;96007.59;4947305;28;20027;-55
2022/09/28 03:45:18;;;;;;;37.35;4.85;;;;;;;9.78;100.00;96006.22;4947771;28;20019;-56
2022/09/28 03:47:45;;;;;;;37.10;4.72;;;;;;;9.94;100.00;96005.94;4946857;28;20089;-55
2022/09/28 03:50:10;;;;;;;33.30;4.60;;;;;;;9.93;100.00;95999.09;4946846;28;20112;-55
2022/09/28 03:52:36;;;;;;;38.30;4.38;;;;;;;9.89;100.00;95994.19;4951498;28;20047;-56
2022/09/28 03:55:01;;;;;;;42.03;5.10;;;;;;;9.68;100.00;95991.31;4951972;28;20027;-55
2022/09/28 03:57:26;;;;;;;38.13;4.88;;;;;;;9.61;100.00;95988.31;4952678;28;20045;-55
2022/09/28 03:59:52;;;;;;;38.47;4.75;;;;;;;10.01;100.00;95986.34;4951025;28;20771;-56
2022/09/28 04:02:17;;;;;;;35.63;4.97;;;;;;;9.99;100.00;95971.78;4949403;28;20047;-56
2022/09/28 04:04:42;;;;;;;32.38;4.43;;;;;;;10.15;100.00;95981.94;4951749;28;20027;-56
2022/09/28 04:07:08;;;;;;;35.25;5.35;;;;;;;9.99;100.00;95966.56;4950243;28;20042;-55
2022/09/28 04:09:33;;;;;;;35.88;5.18;;;;;;;10.07;100.00;95959.03;4950649;28;20034;-55
2022/09/28 04:11:58;;;;;;;35.38;4.60;;;;;;;9.88;100.00;95966.50;4950702;28;20049;-58
2022/09/28 04:14:24;;;;;;;37.55;4.95;;;;;;;10.02;100.00;95955.94;4952125;28;20297;-59
2022/09/28 04:16:53;;;;;;;33.58;5.25;;;;;;;10.39;100.00;95953.31;4950139;28;20492;-57
2022/09/28 04:19:18;;;;;;;44.22;5.20;;;;;;;10.17;100.00;95951.41;4951439;28;20089;-55
2022/09/28 04:21:44;;;;;;;35.25;5.05;;;;;;;9.72;100.00;95948.53;4950650;28;20043;-55
2022/09/28 04:24:10;;;;;;;37.05;5.40;;;;;;;9.66;100.00;95952.38;4949805;28;20041;-55
2022/09/28 04:26:35;;;;;;;37.80;4.93;;;;;;;9.52;100.00;95952.50;4950198;28;20130;-57
2022/09/28 04:29:15;;;;;;;28.85;4.43;;;;;;;9.91;100.00;95958.50;4951677;28;20717;-56
2022/09/28 04:31:43;;;;;;;47.65;5.50;;;;;;;9.61;100.00;95938.84;4948429;28;20370;-56
2022/09/28 04:34:09;;;;;;;34.42;5.25;;;;;;;9.56;100.00;95933.16;4950235;28;20039;-58
2022/09/28 04:36:35;;;;;;;40.90;5.72;;;;;;;9.37;100.00;95924.00;4951290;28;20053;-57
2022/09/28 04:39:01;;;;;;;34.38;5.45;;;;;;;9.54;100.00;95924.59;4951113;28;20034;-59
2022/09/28 04:41:26;;;;;;;37.58;5.47;;;;;;;9.73;100.00;95927.59;4947418;28;20843;-55
2022/09/28 04:43:52;;;;;;;37.80;5.47;;;;;;;10.25;100.00;95925.63;4950896;28;20054;-57
2022/09/28 04:46:18;;;;;;;31.40;4.93;;;;;;;10.10;100.00;95924.97;4949491;28;20043;-57
2022/09/28 04:48:44;;;;;;;38.83;5.85;;;;;;;10.02;100.00;95919.50;4952103;28;20030;-57
2022/09/28 04:51:09;;;;;;;36.15;5.20;;;;;;;9.80;100.00;95918.41;4948684;28;20049;-57
2022/09/28 04:53:34;;;;;;;35.72;5.40;;;;;;;10.18;100.00;95924.41;4952232;28;20031;-56
2022/09/28 04:56:05;;;;;;;34.33;4.88;;;;;;;10.18;100.00;95925.25;4948892;28;20105;-56
2022/09/28 04:58:31;;;;;;;26.23;4.50;;;;;;;10.12;100.00;95917.88;4949750;28;20118;-57
2022/09/28 05:01:00;;;;;;;37.17;5.25;;;;;;;9.96;100.00;95925.97;4948831;28;20043;-56
2022/09/28 05:03:26;;;;;;;28.15;4.72;;;;;;;9.76;100.00;95923.94;4951674;28;20027;-56
2022/09/28 05:05:51;;;;;;;36.70;5.45;;;;;;;9.84;100.00;95932.88;4948989;28;20101;-56
2022/09/28 05:08:17;;;;;;;36.75;5.07;;;;;;;10.08;100.00;95924.25;4950502;28;20069;-55
2022/09/28 05:10:42;;;;;;;38.63;4.97;;;;;;;10.31;100.00;95924.38;4950371;28;20638;-56
2022/09/28 05:13:10;;;;;;;37.53;5.40;;;;;;;9.89;100.00;95931.69;4950430;28;20038;-57
2022/09/28 05:15:37;;;;;;;46.50;6.28;;;;;;;9.78;100.00;95925.50;4948213;28;20050;-57
2022/09/28 05:18:03;;;;;;;38.97;5.18;;;;;;;9.91;100.00;95914.22;4948584;28;20045;-58
2022/09/28 05:20:29;;;;;;;34.05;4.63;;;;;;;10.16;100.00;95911.50;4964167;28;20952;-56
2022/09/28 05:22:54;;;;;;;30.55;5.35;;;;;;;10.00;100.00;95910.97;4949116;28;20030;-57
2022/09/28 05:25:20;;;;;;;33.78;4.95;;;;;;;11.69;100.00;95913.06;4947165;28;20111;-55
2022/09/28 05:27:45;;;;;;;38.75;5.85;;;;;;;10.96;100.00;95889.94;4948469;28;20106;-56
2022/09/28 05:30:11;;;;;;;46.80;6.78;;;;;;;11.13;100.00;95885.22;4948454;28;20447;-56
2022/09/28 05:32:43;;;;;;;38.33;5.75;;;;;;;10.59;100.00;95874.50;4950663;28;20473;-56
2022/09/28 05:35:10;;;;;;;;;;;;;;;10.52;100.00;95875.88;4948188;28;20532;-55
2022/09/28 05:37:38;;;;;;;30.58;4.13;;;;;;;10.11;100.00;95877.16;4949466;28;19922;-55
2022/09/28 05:40:04;;;;;;;37.20;4.93;;;;;;;10.36;100.00;95875.38;4948471;28;20027;-56
2022/09/28 05:42:30;;;;;;;38.40;4.93;;;;;;;10.66;100.00;95872.25;4951114;28;20019;-58
2022/09/28 05:44:57;;;;;;;34.25;4.68;;;;;;;10.61;100.00;95863.94;4949474;28;20027;-58
2022/09/28 05:47:24;;;;;;;32.33;4.57;;;;;;;10.47;100.00;95872.78;4947938;28;20089;-56
2022/09/28 05:49:49;;;;;;;30.25;3.72;;;;;;;11.08;100.00;95885.59;4946300;28;20138;-55
2022/09/28 05:52:15;;;;;;;27.55;3.88;;;;;;;10.88;100.00;95888.88;4949707;28;20097;-60
2022/09/28 05:54:40;;;;;;;55.00;10.13;;;;;;;11.00;100.00;95880.13;4948923;28;20162;-58
2022/09/28 05:57:06;;;;;;;48.15;7.65;;;;;;;11.13;100.00;95890.44;4950431;28;20027;-60
2022/09/28 05:59:33;;;;;;;38.25;5.40;;;;;;;10.89;100.00;95891.38;4948903;28;20077;-60
2022/09/28 06:01:59;;;;;;;33.38;5.88;;;;;;;11.20;100.00;95889.03;4949731;28;20035;-61
2022/09/28 06:04:24;;;;;;;34.13;4.95;;;;;;;11.27;100.00;95890.22;4948762;28;20031;-58
2022/09/28 06:06:49;;;;;;;29.10;4.68;;;;;;;11.04;100.00;95880.72;4949597;28;20098;-61
2022/09/28 06:09:15;;;;;;;44.30;5.80;;;;;;;10.91;100.00;95879.03;4949699;28;21003;-60
2022/09/28 06:11:40;;;;;;;36.80;5.25;;;;;;;10.88;100.00;95874.06;4949407;28;20039;-58
2022/09/28 06:14:06;;;;;;;34.90;4.90;;;;;;;11.32;100.00;95872.44;4947402;28;20031;-58
2022/09/28 06:16:33;;;;;;;30.48;4.60;;;;;;;11.85;100.00;95870.91;4947195;28;20110;-58
2022/09/28 06:18:59;;;;;;;33.80;5.40;;;;;;;10.72;100.00;95855.31;4948452;28;20034;-59
2022/09/28 06:21:24;;;;;;;34.05;4.90;;;;;;;11.56;100.00;95876.66;4948108;28;20457;-60
2022/09/28 06:23:49;;;;;;;35.38;5.45;;;;;;;10.82;100.00;95882.34;4947697;28;20057;-59
2022/09/28 06:26:15;;;;;;;36.80;6.10;;;;;;;10.58;100.00;95875.41;4947388;28;20070;-60
2022/09/28 06:28:41;;;;;;;34.15;6.25;;;;;;;10.97;100.00;95881.19;4949067;28;20027;-58
2022/09/28 06:31:07;;;;;;;36.75;6.40;;;;;;;11.14;100.00;95881.69;4948801;28;20081;-59
2022/09/28 06:33:32;;;;;;;26.83;3.85;;;;;;;11.64;100.00;95879.50;4948730;28;20031;-58
2022/09/28 06:35:58;;;;;;;30.35;5.82;;;;;;;10.93;100.00;95884.97;4947476;28;20053;-59
2022/09/28 06:38:23;;;;;;;32.05;5.38;;;;;;;11.38;100.00;95895.44;4948201;28;20070;-59
2022/09/28 06:40:48;;;;;;;34.70;5.35;;;;;;;10.96;100.00;95895.16;4949835;28;20051;-57
2022/09/28 06:43:14;;;;;;;38.00;5.43;;;;;;;11.21;100.00;95897.69;4948249;28;20471;-58
2022/09/28 06:45:40;;;;;;;37.78;5.43;;;;;;;12.06;100.00;95905.78;4948260;28;20577;-58
2022/09/28 06:48:07;;;;;;;31.38;4.82;;;;;;;11.50;100.00;95911.06;4948004;28;20027;-60
2022/09/28 06:50:41;;;;;;;28.30;4.57;;;;;;;11.59;100.00;95902.53;4948012;28;20043;-59
2022/09/28 06:53:10;;;;;;;39.45;5.45;;;;;;;11.52;100.00;95906.56;4950283;28;20037;-58
2022/09/28 06:55:44;;;;;;;31.75;4.90;;;;;;;11.95;100.00;95908.44;4946706;28;20109;-59
2022/09/28 06:58:13;;;;;;;27.55;4.28;;;;;;;11.54;100.00;95905.50;4948212;28;20038;-59
2022/09/28 07:00:39;;;;;;;31.27;4.70;;;;;;;11.93;100.00;95905.13;4946423;28;20134;-60
2022/09/28 07:03:10;;;;;;;33.75;4.78;;;;;;;11.66;100.00;95908.09;4947400;28;20070;-60
2022/09/28 07:05:40;;;;;;;47.72;6.03;;;;;;;11.28;100.00;95925.78;4946855;28;20066;-61
2022/09/28 07:08:06;;;;;;;27.30;3.90;;;;;;;11.14;100.00;95924.25;4948106;28;20042;-61
2022/09/28 07:10:32;;;;;;;27.95;4.03;;;;;;;11.92;100.00;95926.97;4948026;28;20066;-59
2022/09/28 07:13:01;;;;;;;26.90;3.95;;;;;;;11.76;100.00;95920.31;4949870;28;20298;-61
2022/09/28 07:15:28;;;;;;;25.55;4.05;;;;;;;11.57;100.00;95925.31;4946097;28;20126;-59
2022/09/28 07:17:58;;;;;;;17.90;3.30;;;;;;;11.67;100.00;95941.94;4946866;28;20799;-57
2022/09/28 07:20:24;;;;;;;26.00;3.92;;;;;;;11.92;100.00;95940.84;4946710;28;20050;-59
2022/09/28 07:23:01;;;;;;;26.35;4.30;;;;;;;11.85;100.00;95938.81;4949620;28;20035;-60
2022/09/28 07:25:28;;;;;;;28.73;4.47;;;;;;;11.97;100.00;95937.88;4950827;28;20401;-60
2022/09/28 07:28:04;;;;;;;33.33;4.90;;;;;;;12.24;100.00;95945.31;4950039;28;20512;-58
2022/09/28 07:30:32;;;;;;;31.42;4.57;;;;;;;12.02;100.00;95948.81;4951401;28;20578;-57
2022/09/28 07:32:59;;;;;;;34.78;5.13;;;;;;;12.03;100.00;95953.06;4953902;28;20121;-57
2022/09/28 07:35:24;;;;;;;27.63;3.80;;;;;;;12.96;100.00;95956.88;4950991;28;20091;-59
2022/09/28 07:38:09;;;;;;;29.63;4.72;;;;;;;12.35;100.00;95952.25;4950996;28;20027;-59
2022/09/28 07:43:20;;;;;;;25.38;3.67;;;;;;;12.20;100.00;95963.94;4951855;28;20772;-55
2022/09/28 07:45:47;;;;;;;33.97;4.88;;;;;;;12.64;100.00;95964.75;4951639;28;20050;-56
2022/09/28 07:48:15;;;;;;;32.42;4.75;;;;;;;12.07;100.00;95964.91;4949464;28;20035;-59
2022/09/28 07:50:41;;;;;;;24.30;3.60;;;;;;;12.67;100.00;95974.97;4951936;28;20043;-57
2022/09/28 07:53:07;;;;;;;26.55;4.10;;;;;;;12.01;100.00;95968.03;4951417;28;20023;-57
2022/09/28 07:55:33;;;;;;;28.67;4.32;;;;;;;12.29;100.00;95976.28;4951611;28;20040;-55
2022/09/28 07:57:59;;;;;;;24.52;3.85;;;;;;;12.37;100.00;95973.91;4951990;28;20038;-59
2022/09/28 08:00:31;;;;;;;30.85;4.40;;;;;;;12.38;100.00;95977.34;4953346;28;20050;-58
2022/09/28 08:03:00;;;;;;;29.57;4.20;;;;;;;12.17;100.00;95979.88;4950687;28;20031;-57
2022/09/28 08:05:30;;;;;;;27.20;4.22;;;;;;;12.28;100.00;95987.72;4950449;28;20054;-59
2022/09/28 08:07:57;;;;;;;29.23;4.15;;;;;;;12.63;100.00;95986.66;4951313;28;20034;-57
2022/09/28 08:10:22;;;;;;;29.80;4.47;;;;;;;12.56;100.00;95982.88;4951009;28;20170;-57
2022/09/28 08:12:53;;;;;;;27.00;4.10;;;;;;;13.18;100.00;96003.03;4949920;28;20514;-59
2022/09/28 08:15:20;;;;;;;25.50;4.18;;;;;;;12.28;100.00;96006.00;4950145;28;20031;-58
2022/09/28 08:17:46;;;;;;;28.95;4.18;;;;;;;12.11;100.00;96002.94;4950218;28;20041;-57
2022/09/28 08:23:02;;;;;;;27.05;3.92;;;;;;;11.99;100.00;96014.34;4951704;28;20919;-59
2022/09/28 08:25:27;;;;;;;23.63;3.47;;;;;;;12.02;100.00;96021.97;4949331;28;20041;-57
2022/09/28 08:27:55;;;;;;;22.55;3.33;;;;;;;12.07;100.00;96027.63;4949188;28;20027;-58
2022/09/28 08:30:20;;;;;;;27.27;3.90;;;;;;;11.78;100.00;96022.03;4951466;28;20050;-58
2022/09/28 08:32:49;;;;;;;31.30;4.25;;;;;;;12.84;100.00;96021.50;4951227;28;20377;-57
2022/09/28 08:35:15;;;;;;;27.35;3.72;;;;;;;12.11;100.00;96023.84;4950444;28;20083;-58
2022/09/28 08:37:40;;;;;;;28.95;3.90;;;;;;;12.27;100.00;96027.84;4950702;28;20167;-58
2022/09/28 08:40:15;;;;;;;38.13;4.95;;;;;;;12.68;100.00;96032.38;4950260;28;20046;-59
2022/09/28 08:42:43;;;;;;;22.80;3.30;;;;;;;13.01;100.00;96033.22;4949572;28;20705;-57
2022/09/28 08:45:26;;;;;;;36.22;4.97;;;;;;;13.48;100.00;96038.09;4949828;28;20110;-55
2022/09/28 08:50:47;;;;;;;24.17;3.40;;;;;;;14.04;100.00;96032.44;4950143;28;19938;-57
2022/09/28 08:53:33;;;;;;;24.55;3.72;;;;;;;13.65;100.00;96034.03;4949953;28;20031;-57
2022/09/28 08:56:03;;;;;;;29.80;4.10;;;;;;;14.78;100.00;96047.00;4947753;28;20051;-58
2022/09/28 08:58:34;;;;;;;22.05;3.28;;;;;;;15.61;100.00;96038.63;4952470;28;20042;-57
2022/09/28 09:01:04;;;;;;;23.52;3.58;;;;;;;14.18;100.00;96038.28;4949386;28;20043;-60
2022/09/28 09:03:36;;;;;;;18.90;3.15;;;;;;;14.43;100.00;96043.03;4952119;28;20058;-58
2022/09/28 09:06:17;;;;;;;26.13;3.90;;;;;;;15.57;100.00;96050.41;4950003;28;20137;-57
2022/09/28 09:08:48;;;;;;;21.45;3.42;;;;;;;18.07;100.00;96045.56;4948604;28;20107;-58
2022/09/28 09:11:17;;;;;;;24.63;3.65;;;;;;;17.86;100.00;96038.03;4949936;28;20035;-59
2022/09/28 09:13:59;;;;;;;19.55;3.20;;;;;;;18.20;100.00;96045.13;4950477;28;20027;-56
2022/09/28 09:16:39;;;;;;;17.80;3.15;;;;;;;17.60;100.00;96044.09;4949588;28;20465;-55
2022/09/28 09:19:42;;;;;;;17.73;3.00;;;;;;;16.89;100.00;96037.09;4950222;28;20440;-55
2022/09/28 09:22:39;;;;;;;22.90;3.75;;;;;;;18.86;100.00;96047.00;4947011;28;20120;-58
2022/09/28 09:25:17;;;;;;;24.10;3.95;;;;;;;21.25;100.00;96052.53;4948335;28;20465;-58
2022/09/28 09:28:20;;;;;;;20.67;3.55;;;;;;;21.41;100.00;96051.56;4948634;28;20043;-59
2022/09/28 09:31:39;;;;;;;20.95;3.10;;;;;;;20.48;100.00;96055.13;4952058;28;20111;-57
2022/09/28 09:34:25;;;;;;;18.40;3.28;;;;;;;17.07;100.00;96048.44;4955489;28;21085;-57
2022/09/28 09:36:59;;;;;;;18.98;3.40;;;;;;;17.31;100.00;96050.47;4935692;28;20043;-57
2022/09/28 09:39:42;;;;;;;19.40;3.50;;;;;;;18.14;100.00;96053.66;4951631;28;20393;-58
2022/09/28 09:42:29;;;;;;;17.30;3.13;;;;;;;18.23;100.00;96050.06;4949341;28;20039;-57
2022/09/28 09:45:12;;;;;;;22.92;3.80;;;;;;;19.46;100.00;96052.97;4949187;28;20087;-57
2022/09/28 09:48:00;;;;;;;18.23;3.33;;;;;;;18.50;100.00;96051.66;4947545;28;20051;-55
2022/09/28 09:50:33;;;;;;;18.00;2.85;;;;;;;18.54;100.00;96047.72;4949107;28;20051;-55
2022/09/28 09:53:18;;;;;;;17.52;3.13;;;;;;;18.79;100.00;96063.63;4947997;28;20051;-56
2022/09/28 09:55:49;;;;;;;24.25;4.10;;;;;;;19.42;100.00;96060.41;4949465;28;20046;-56
2022/09/28 09:58:50;;;;;;;16.10;2.97;;;;;;;18.55;100.00;96057.28;4948320;28;20042;-56
2022/09/28 10:01:24;;;;;;;14.18;2.90;;;;;;;18.92;100.00;96063.19;4953477;28;20039;-57
2022/09/28 10:03:50;;;;;;;20.60;3.58;;;;;;;19.09;100.00;96066.69;4948592;28;20027;-58
2022/09/28 10:06:38;;;;;;;18.85;3.25;;;;;;;20.57;100.00;96068.13;4947612;28;20110;-57
2022/09/28 10:09:23;;;;;;;18.50;3.33;;;;;;;20.27;100.00;96071.56;4946937;28;20034;-57
2022/09/28 10:11:50;;;;;;;18.42;3.00;;;;;;;18.21;100.00;96058.13;4950010;28;20134;-58
2022/09/28 10:14:20;;;;;;;19.70;3.33;;;;;;;19.00;100.00;96065.84;4947719;28;20113;-58
2022/09/28 10:16:47;;;;;;;19.13;3.45;;;;;;;20.71;100.00;96060.47;4947504;28;20039;-57
2022/09/28 10:19:13;;;;;;;15.45;2.75;;;;;;;18.60;100.00;96068.22;4948677;28;20118;-57
2022/09/28 10:21:40;;;;;;;13.55;2.63;;;;;;;18.36;100.00;96070.75;4947130;28;20121;-58
2022/09/28 10:24:15;;;;;;;16.67;3.03;;;;;;;19.20;100.00;96071.66;4949110;28;20092;-56
2022/09/28 10:26:47;;;;;;;21.98;3.67;;;;;;;18.04;100.00;96066.97;4947448;28;20059;-56
2022/09/28 10:29:16;;;;;;;21.02;3.75;;;;;;;18.06;100.00;96081.66;4947187;28;20122;-59
2022/09/28 10:31:49;;;;;;;21.55;3.58;;;;;;;17.26;100.00;96072.97;4947666;28;20461;-56
2022/09/28 10:34:17;;;;;;;22.58;3.58;;;;;;;18.19;100.00;96085.69;4947348;28;20026;-58
2022/09/28 10:36:54;;;;;;;21.02;3.55;;;;;;;16.49;100.00;96090.94;4945485;28;20619;-57
2022/09/28 10:39:29;;;;;;;22.85;3.67;;;;;;;17.39;100.00;96089.25;4948483;28;20039;-57
2022/09/28 10:41:57;;;;;;;20.95;3.75;;;;;;;17.81;100.00;96093.00;4948489;28;20035;-57
2022/09/28 10:44:23;;;;;;;17.85;2.80;;;;;;;18.88;100.00;96097.03;4947691;28;20046;-57
2022/09/28 10:46:57;;;;;;;17.83;3.03;;;;;;;19.86;100.00;96098.94;4950125;28;20336;-58
2022/09/28 10:49:24;;;;;;;15.70;2.85;;;;;;;19.60;100.00;96091.16;4947859;28;20506;-57
2022/09/28 10:51:55;;;;;;;19.15;3.22;;;;;;;19.09;98.05;96088.66;4946931;28;20741;-56
2022/09/28 10:54:28;;;;;;;17.98;2.95;;;;;;;19.61;100.00;96087.50;4947946;28;20038;-58
2022/09/28 10:56:56;;;;;;;15.98;2.83;;;;;;;18.47;94.47;96086.28;4948012;28;20485;-57
2022/09/28 10:59:27;;;;;;;16.88;2.83;;;;;;;18.80;100.00;96089.03;4947601;28;20031;-59
2022/09/28 11:02:01;;;;;;;16.77;3.07;;;;;;;17.19;100.00;96087.75;4947170;28;20579;-57
2022/09/28 11:04:29;;;;;;;19.63;3.22;;;;;;;17.90;100.00;96085.03;4947499;28;20288;-57
2022/09/28 11:06:58;;;;;;;18.75;3.10;;;;;;;18.37;100.00;96098.81;4946062;28;20493;-56
2022/09/28 11:09:33;;;;;;;17.83;2.92;;;;;;;18.66;97.96;96096.59;4948278;28;20113;-60
2022/09/28 11:12:02;;;;;;;21.23;3.42;;;;;;;19.55;96.53;96098.75;4947623;28;20276;-58
2022/09/28 11:14:42;;;;;;;15.65;2.83;;;;;;;18.68;96.17;96099.91;4946502;28;20023;-56
2022/09/28 11:17:31;;;;;;;16.38;2.78;;;;;;;19.08;100.00;96084.38;4945300;28;20824;-56
2022/09/28 11:20:21;;;;;;;20.77;3.17;;;;;;;20.70;94.89;96094.09;4947946;28;20037;-58
2022/09/28 11:22:47;;;;;;;18.77;3.13;;;;;;;18.15;89.25;96082.53;4927695;29;20088;-57
2022/09/28 11:25:22;;;;;;;18.27;3.08;;;;;;;19.25;97.32;96087.84;4927716;28;20107;-58
2022/09/28 11:27:50;;;;;;;16.83;2.70;;;;;;;17.79;90.25;96090.53;4946947;28;20027;-57
2022/09/28 11:30:32;;;;;;;21.17;3.42;;;;;;;17.45;97.84;96088.63;4948171;28;20057;-58
2022/09/28 11:33:10;;;;;;;19.02;3.20;;;;;;;17.25;93.19;96082.69;4949356;28;20019;-57
2022/09/28 11:35:49;;;;;;;25.75;3.65;;;;;;;17.68;99.39;96078.44;4947552;28;20043;-59
2022/09/28 11:38:32;;;;;;;16.52;2.90;;;;;;;17.38;97.66;96082.31;4946599;28;20046;-58
2022/09/28 11:41:10;;;;;;;17.75;2.92;;;;;;;17.95;100.00;96076.63;4948041;28;20043;-57
2022/09/28 11:43:44;;;;;;;19.48;3.15;;;;;;;17.80;100.00;96076.34;4945652;28;20625;-57
2022/09/28 11:46:19;;;;;;;21.73;3.47;;;;;;;18.11;100.00;96078.56;4948059;28;20057;-57
2022/09/28 11:48:49;;;;;;;20.35;3.35;;;;;;;17.62;100.00;96078.22;4948250;28;20116;-58
2022/09/28 11:51:30;;;;;;;19.65;3.30;;;;;;;16.84;100.00;96078.84;4946601;28;20519;-57